logo
Rechercher aéroport 
image banner adimage banner adimage banner ad
image banner ad

SISH - Vega

Situé à Fortaleza, Brazil

ICAO - SISH, IATA -

Données fournies par Airmate  

Information générale

Coordonnées: S3°43'12" W38°32'32"
Élévation : 32 feet MSL.
Variation magnétique : -20.731140263° East
Voir autres Aéroports à Ceará

Données opérationnelles

Special qualification required
Heure actuelle UTC:
Heure actuelle locale:
Météo à : SBFZ - Pinto Martins ( 6 km )
METAR: SBFZ 220700Z 16009KT 9999 BKN020 26/24 Q1012
TAF: TAF SBFZ 220300Z 2206/2306 17005KT 9999 SCT020 TN26/2208Z TX31/2217Z BECMG 2212/2214 14010KT SCT025 BECMG 2215/2217 11015KT BECMG 2302/2304 17005KT SCT020 RMK PHD
Voir NOTAMs / SUP AIP / TFR affectant cet aéroport [VIEW]
Fréquences de communication: [VIEW]

Pistes:

Coordonnées de l'aéroport

Adresse: Fortaleza Brazil

Vue satellite de SISH